sensor_id;sensor_type;location;lat;lon;timestamp;pressure;altitude;pressure_sealevel;temperature;humidity
48244;BME280;34053;51.088;6.572;2022-10-15T00:02:28;100221.81;;;14.59;78.18
48244;BME280;34053;51.088;6.572;2022-10-15T00:04:59;100215.72;;;14.58;78.19
48244;BME280;34053;51.088;6.572;2022-10-15T00:07:29;100219.28;;;14.57;78.05
48244;BME280;34053;51.088;6.572;2022-10-15T00:10:00;100206.00;;;14.59;77.92
48244;BME280;34053;51.088;6.572;2022-10-15T00:12:31;100206.84;;;14.59;77.79
48244;BME280;34053;51.088;6.572;2022-10-15T00:15:02;100199.88;;;14.58;77.73
48244;BME280;34053;51.088;6.572;2022-10-15T00:17:33;100195.28;;;14.62;77.68
48244;BME280;34053;51.088;6.572;2022-10-15T00:20:05;100195.91;;;14.67;77.49
48244;BME280;34053;51.088;6.572;2022-10-15T00:22:47;100199.28;;;14.71;77.62
48244;BME280;34053;51.088;6.572;2022-10-15T00:25:17;100196.34;;;14.75;77.66
48244;BME280;34053;51.088;6.572;2022-10-15T00:27:48;100188.00;;;14.67;77.75
48244;BME280;34053;51.088;6.572;2022-10-15T00:30:19;100190.69;;;14.66;77.70
48244;BME280;34053;51.088;6.572;2022-10-15T00:32:52;100188.28;;;14.61;78.01
48244;BME280;34053;51.088;6.572;2022-10-15T00:35:22;100197.00;;;14.63;77.82
48244;BME280;34053;51.088;6.572;2022-10-15T00:37:55;100189.22;;;14.60;77.70
48244;BME280;34053;51.088;6.572;2022-10-15T00:40:25;100184.13;;;14.57;78.08
48244;BME280;34053;51.088;6.572;2022-10-15T00:42:56;100178.66;;;14.60;77.75
48244;BME280;34053;51.088;6.572;2022-10-15T00:45:30;100183.19;;;14.58;77.64
48244;BME280;34053;51.088;6.572;2022-10-15T00:48:00;100176.09;;;14.58;77.59
48244;BME280;34053;51.088;6.572;2022-10-15T00:50:33;100171.75;;;14.57;77.49
48244;BME280;34053;51.088;6.572;2022-10-15T00:53:05;100177.91;;;14.58;77.29
48244;BME280;34053;51.088;6.572;2022-10-15T00:55:39;100173.38;;;14.60;77.16
48244;BME280;34053;51.088;6.572;2022-10-15T00:58:14;100191.84;;;14.60;77.04
48244;BME280;34053;51.088;6.572;2022-10-15T01:00:45;100192.03;;;14.57;77.28
48244;BME280;34053;51.088;6.572;2022-10-15T01:03:16;100198.16;;;14.57;76.89
48244;BME280;34053;51.088;6.572;2022-10-15T01:05:47;100194.81;;;14.54;76.85
48244;BME280;34053;51.088;6.572;2022-10-15T01:08:18;100201.03;;;14.53;77.06
48244;BME280;34053;51.088;6.572;2022-10-15T01:21:02;100206.09;;;14.40;76.92
48244;BME280;34053;51.088;6.572;2022-10-15T01:32:24;100205.25;;;14.22;77.37
48244;BME280;34053;51.088;6.572;2022-10-15T01:43:23;100208.81;;;14.21;77.13
48244;BME280;34053;51.088;6.572;2022-10-15T01:46:01;100207.09;;;14.20;77.04
48244;BME280;34053;51.088;6.572;2022-10-15T01:48:40;100201.06;;;14.17;77.24
48244;BME280;34053;51.088;6.572;2022-10-15T01:51:11;100193.13;;;14.17;77.42
48244;BME280;34053;51.088;6.572;2022-10-15T01:53:43;100189.66;;;14.17;77.13
48244;BME280;34053;51.088;6.572;2022-10-15T01:56:16;100189.66;;;14.17;77.23
48244;BME280;34053;51.088;6.572;2022-10-15T01:58:48;100191.28;;;14.20;77.22
48244;BME280;34053;51.088;6.572;2022-10-15T02:01:20;100190.50;;;14.17;77.39
48244;BME280;34053;51.088;6.572;2022-10-15T02:03:51;100186.19;;;14.16;77.19
48244;BME280;34053;51.088;6.572;2022-10-15T02:06:31;100188.97;;;14.13;77.31
48244;BME280;34053;51.088;6.572;2022-10-15T02:14:34;100187.09;;;14.15;77.06
48244;BME280;34053;51.088;6.572;2022-10-15T02:17:10;100183.38;;;14.20;77.19
48244;BME280;34053;51.088;6.572;2022-10-15T02:19:51;100181.03;;;14.13;77.59
48244;BME280;34053;51.088;6.572;2022-10-15T02:22:25;100177.38;;;14.16;77.38
48244;BME280;34053;51.088;6.572;2022-10-15T02:25:07;100189.78;;;14.14;77.33
48244;BME280;34053;51.088;6.572;2022-10-15T02:27:43;100189.75;;;14.15;77.26
48244;BME280;34053;51.088;6.572;2022-10-15T02:30:14;100187.25;;;14.12;77.58
48244;BME280;34053;51.088;6.572;2022-10-15T02:32:51;100194.22;;;14.13;77.57
48244;BME280;34053;51.088;6.572;2022-10-15T02:35:24;100189.78;;;14.14;77.31
48244;BME280;34053;51.088;6.572;2022-10-15T02:37:56;100181.03;;;14.13;77.52
48244;BME280;34053;51.088;6.572;2022-10-15T02:40:29;100185.22;;;14.17;78.14
48244;BME280;34053;51.088;6.572;2022-10-15T02:43:12;100184.47;;;14.15;77.57
48244;BME280;34053;51.088;6.572;2022-10-15T02:45:43;100193.31;;;14.14;77.48
48244;BME280;34053;51.088;6.572;2022-10-15T02:48:13;100193.22;;;14.16;78.03
48244;BME280;34053;51.088;6.572;2022-10-15T02:50:43;100193.44;;;14.11;79.93
48244;BME280;34053;51.088;6.572;2022-10-15T02:53:14;100199.13;;;14.21;78.44
48244;BME280;34053;51.088;6.572;2022-10-15T02:55:44;100200.59;;;14.09;80.43
48244;BME280;34053;51.088;6.572;2022-10-15T02:58:16;100190.34;;;14.03;80.44
48244;BME280;34053;51.088;6.572;2022-10-15T03:00:46;100184.13;;;14.04;79.63
48244;BME280;34053;51.088;6.572;2022-10-15T03:03:18;100185.53;;;14.11;79.14
48244;BME280;34053;51.088;6.572;2022-10-15T03:05:51;100177.31;;;14.17;79.33
48244;BME280;34053;51.088;6.572;2022-10-15T03:08:24;100183.53;;;14.16;79.36
48244;BME280;34053;51.088;6.572;2022-10-15T03:11:05;100168.63;;;14.15;79.33
48244;BME280;34053;51.088;6.572;2022-10-15T03:13:36;100170.63;;;14.10;78.91
48244;BME280;34053;51.088;6.572;2022-10-15T03:16:16;100152.88;;;14.14;78.59
48244;BME280;34053;51.088;6.572;2022-10-15T03:18:47;100145.13;;;14.11;78.56
48244;BME280;34053;51.088;6.572;2022-10-15T03:21:36;100150.22;;;14.14;78.32
48244;BME280;34053;51.088;6.572;2022-10-15T03:24:08;100157.31;;;14.13;78.14
48244;BME280;34053;51.088;6.572;2022-10-15T03:26:39;100159.84;;;14.15;78.31
48244;BME280;34053;51.088;6.572;2022-10-15T03:29:10;100154.53;;;14.16;77.94
48244;BME280;34053;51.088;6.572;2022-10-15T03:31:40;100160.53;;;14.19;78.12
48244;BME280;34053;51.088;6.572;2022-10-15T03:34:11;100155.44;;;14.15;78.22
48244;BME280;34053;51.088;6.572;2022-10-15T03:36:44;100158.84;;;14.17;78.01
48244;BME280;34053;51.088;6.572;2022-10-15T03:39:17;100153.56;;;14.17;78.10
48244;BME280;34053;51.088;6.572;2022-10-15T03:41:56;100154.34;;;14.20;77.82
48244;BME280;34053;51.088;6.572;2022-10-15T03:44:27;100151.69;;;14.20;77.86
48244;BME280;34053;51.088;6.572;2022-10-15T03:46:57;100155.13;;;14.22;77.76
48244;BME280;34053;51.088;6.572;2022-10-15T03:49:27;100158.69;;;14.21;77.93
48244;BME280;34053;51.088;6.572;2022-10-15T03:51:58;100152.63;;;14.19;77.73
48244;BME280;34053;51.088;6.572;2022-10-15T03:54:28;100153.66;;;14.16;77.96
48244;BME280;34053;51.088;6.572;2022-10-15T03:56:59;100158.84;;;14.17;77.73
48244;BME280;34053;51.088;6.572;2022-10-15T03:59:32;100162.44;;;14.16;77.79
48244;BME280;34053;51.088;6.572;2022-10-15T04:02:06;100166.84;;;14.16;77.89
48244;BME280;34053;51.088;6.572;2022-10-15T04:04:38;100174.84;;;14.14;77.99
48244;BME280;34053;51.088;6.572;2022-10-15T04:07:08;100172.28;;;14.13;78.27
48244;BME280;34053;51.088;6.572;2022-10-15T04:09:41;100166.28;;;14.09;78.53
48244;BME280;34053;51.088;6.572;2022-10-15T04:12:11;100167.84;;;14.13;78.17
48244;BME280;34053;51.088;6.572;2022-10-15T04:14:42;100166.94;;;14.14;78.05
48244;BME280;34053;51.088;6.572;2022-10-15T04:17:12;100160.72;;;14.15;78.32
48244;BME280;34053;51.088;6.572;2022-10-15T04:19:43;100164.13;;;14.17;78.30
48244;BME280;34053;51.088;6.572;2022-10-15T04:22:13;100167.72;;;14.16;78.56
48244;BME280;34053;51.088;6.572;2022-10-15T04:24:44;100167.72;;;14.16;78.63
48244;BME280;34053;51.088;6.572;2022-10-15T04:27:14;100172.97;;;14.16;78.52
48244;BME280;34053;51.088;6.572;2022-10-15T04:29:50;100166.16;;;14.12;79.15
48244;BME280;34053;51.088;6.572;2022-10-15T04:32:20;100162.72;;;14.10;79.19
48244;BME280;34053;51.088;6.572;2022-10-15T04:34:50;100160.88;;;14.12;79.12
48244;BME280;34053;51.088;6.572;2022-10-15T04:37:21;100151.19;;;14.13;78.93
48244;BME280;34053;51.088;6.572;2022-10-15T04:39:51;100153.88;;;14.11;78.80
48244;BME280;34053;51.088;6.572;2022-10-15T04:42:22;100155.69;;;14.11;78.62
48244;BME280;34053;51.088;6.572;2022-10-15T04:44:52;100153.41;;;14.21;78.67
48244;BME280;34053;51.088;6.572;2022-10-15T04:47:23;100140.47;;;14.16;78.52
48244;BME280;34053;51.088;6.572;2022-10-15T04:49:53;100142.31;;;14.14;78.49
48244;BME280;34053;51.088;6.572;2022-10-15T04:52:28;100140.78;;;14.10;79.00
48244;BME280;34053;51.088;6.572;2022-10-15T04:55:06;100138.91;;;14.12;78.47
48244;BME280;34053;51.088;6.572;2022-10-15T04:57:36;100137.03;;;14.14;78.28
48244;BME280;34053;51.088;6.572;2022-10-15T05:00:10;100150.00;;;14.19;77.98
48244;BME280;34053;51.088;6.572;2022-10-15T05:02:44;100146.50;;;14.18;78.13
48244;BME280;34053;51.088;6.572;2022-10-15T05:05:15;100150.91;;;14.17;77.94
48244;BME280;34053;51.088;6.572;2022-10-15T05:07:45;100150.00;;;14.19;77.98
48244;BME280;34053;51.088;6.572;2022-10-15T05:10:16;100151.69;;;14.20;78.04
48244;BME280;34053;51.088;6.572;2022-10-15T05:12:46;100155.28;;;14.19;78.69
48244;BME280;34053;51.088;6.572;2022-10-15T05:15:16;100155.13;;;14.22;78.73
48244;BME280;34053;51.088;6.572;2022-10-15T05:17:47;100162.25;;;14.20;79.52
48244;BME280;34053;51.088;6.572;2022-10-15T05:20:20;100152.25;;;14.26;78.97
48244;BME280;34053;51.088;6.572;2022-10-15T05:22:50;100160.53;;;14.19;79.17
48244;BME280;34053;51.088;6.572;2022-10-15T05:25:24;100163.50;;;14.12;79.67
48244;BME280;34053;51.088;6.572;2022-10-15T05:27:55;100157.16;;;14.16;80.06
48244;BME280;34053;51.088;6.572;2022-10-15T05:30:25;100168.16;;;14.25;79.64
48244;BME280;34053;51.088;6.572;2022-10-15T05:32:55;100154.97;;;14.07;80.05
48244;BME280;34053;51.088;6.572;2022-10-15T05:35:26;100162.03;;;14.07;79.47
48244;BME280;34053;51.088;6.572;2022-10-15T05:38:08;100153.41;;;14.03;80.45
48244;BME280;34053;51.088;6.572;2022-10-15T05:40:39;100154.91;;;14.09;80.16
48244;BME280;34053;51.088;6.572;2022-10-15T05:43:12;100145.34;;;14.06;79.32
48244;BME280;34053;51.088;6.572;2022-10-15T05:45:42;100148.28;;;14.17;79.49
48244;BME280;34053;51.088;6.572;2022-10-15T05:48:15;100153.34;;;14.05;80.36
48244;BME280;34053;51.088;6.572;2022-10-15T05:50:46;100153.34;;;14.05;79.98
48244;BME280;34053;51.088;6.572;2022-10-15T05:53:17;100149.84;;;14.04;80.28
48244;BME280;34053;51.088;6.572;2022-10-15T05:55:47;100153.03;;;14.11;79.79
48244;BME280;34053;51.088;6.572;2022-10-15T05:58:21;100154.06;;;14.08;79.52
48244;BME280;34053;51.088;6.572;2022-10-15T06:00:52;100163.03;;;14.04;80.27
48244;BME280;34053;51.088;6.572;2022-10-15T06:03:26;100155.34;;;13.99;80.03
48244;BME280;34053;51.088;6.572;2022-10-15T06:05:57;100163.75;;;14.08;79.83
48244;BME280;34053;51.088;6.572;2022-10-15T06:08:28;100163.03;;;14.04;80.44
48244;BME280;34053;51.088;6.572;2022-10-15T06:11:02;100170.56;;;14.12;79.47
48244;BME280;34053;51.088;6.572;2022-10-15T06:13:36;100176.09;;;14.07;79.75
48244;BME280;34053;51.088;6.572;2022-10-15T06:16:11;100176.22;;;14.04;80.17
48244;BME280;34053;51.088;6.572;2022-10-15T06:18:45;100177.81;;;14.08;79.76
48244;BME280;34053;51.088;6.572;2022-10-15T06:21:16;100181.66;;;14.01;80.41
48244;BME280;34053;51.088;6.572;2022-10-15T06:23:48;100175.84;;;13.94;80.23
48244;BME280;34053;51.088;6.572;2022-10-15T06:26:18;100182.66;;;13.98;80.45
48244;BME280;34053;51.088;6.572;2022-10-15T06:28:51;100181.91;;;13.96;80.08
48244;BME280;34053;51.088;6.572;2022-10-15T06:31:23;100180.72;;;14.02;79.53
48244;BME280;34053;51.088;6.572;2022-10-15T06:33:53;100177.63;;;13.94;79.75
48244;BME280;34053;51.088;6.572;2022-10-15T06:36:24;100169.56;;;13.97;80.31
48244;BME280;34053;51.088;6.572;2022-10-15T06:38:55;100172.34;;;13.94;79.97
48244;BME280;34053;51.088;6.572;2022-10-15T06:41:25;100173.22;;;13.94;79.74
48244;BME280;34053;51.088;6.572;2022-10-15T06:43:55;100170.63;;;13.93;79.61
48244;BME280;34053;51.088;6.572;2022-10-15T06:46:26;100172.34;;;13.94;79.43
48244;BME280;34053;51.088;6.572;2022-10-15T06:48:56;100179.31;;;13.95;79.82
48244;BME280;34053;51.088;6.572;2022-10-15T06:51:27;100180.91;;;13.99;79.82
48244;BME280;34053;51.088;6.572;2022-10-15T06:53:57;100176.38;;;14.01;79.76
48244;BME280;34053;51.088;6.572;2022-10-15T06:56:27;100172.97;;;13.99;80.11
48244;BME280;34053;51.088;6.572;2022-10-15T06:59:01;100180.72;;;14.02;79.91
48244;BME280;34053;51.088;6.572;2022-10-15T07:01:32;100174.06;;;13.95;80.03
48244;BME280;34053;51.088;6.572;2022-10-15T07:04:09;100180.91;;;13.99;79.98
48244;BME280;34053;51.088;6.572;2022-10-15T07:06:39;100179.00;;;14.01;79.71
48244;BME280;34053;51.088;6.572;2022-10-15T07:09:10;100188.81;;;13.99;80.22
48244;BME280;34053;51.088;6.572;2022-10-15T07:11:48;100193.84;;;14.04;80.27
48244;BME280;34053;51.088;6.572;2022-10-15T07:14:19;100187.72;;;14.03;81.29
48244;BME280;34053;51.088;6.572;2022-10-15T07:16:49;100180.56;;;14.05;80.54
48244;BME280;34053;51.088;6.572;2022-10-15T07:19:20;100178.72;;;14.07;80.14
48244;BME280;34053;51.088;6.572;2022-10-15T07:21:50;100175.16;;;14.08;80.60
48244;BME280;34053;51.088;6.572;2022-10-15T07:24:23;100176.84;;;14.09;80.30
48244;BME280;34053;51.088;6.572;2022-10-15T07:26:58;100172.44;;;14.10;80.75
48244;BME280;34053;51.088;6.572;2022-10-15T07:29:28;100182.75;;;14.14;80.81
48244;BME280;34053;51.088;6.572;2022-10-15T07:32:04;100181.03;;;14.13;80.52
48244;BME280;34053;51.088;6.572;2022-10-15T07:34:35;100173.81;;;14.17;80.63
48244;BME280;34053;51.088;6.572;2022-10-15T07:37:08;100176.38;;;14.19;80.34
48244;BME280;34053;51.088;6.572;2022-10-15T07:39:39;100168.00;;;14.28;80.66
48244;BME280;34053;51.088;6.572;2022-10-15T07:42:09;100155.91;;;14.24;80.58
48244;BME280;34053;51.088;6.572;2022-10-15T07:44:43;100160.06;;;14.28;80.49
48244;BME280;34053;51.088;6.572;2022-10-15T07:47:19;100158.38;;;14.27;81.15
48244;BME280;34053;51.088;6.572;2022-10-15T07:49:50;100155.44;;;14.33;80.55
48244;BME280;34053;51.088;6.572;2022-10-15T07:52:20;100154.47;;;14.34;80.45
48244;BME280;34053;51.088;6.572;2022-10-15T07:54:53;100145.63;;;14.35;81.09
48244;BME280;34053;51.088;6.572;2022-10-15T07:57:23;100135.75;;;14.39;80.57
48244;BME280;34053;51.088;6.572;2022-10-15T07:59:56;100145.34;;;14.41;81.60
48244;BME280;34053;51.088;6.572;2022-10-15T08:02:27;100143.28;;;14.46;81.14
48244;BME280;34053;51.088;6.572;2022-10-15T08:05:53;100149.34;;;14.48;80.95
48244;BME280;34053;51.088;6.572;2022-10-15T08:08:25;100143.97;;;14.50;81.37
48244;BME280;34053;51.088;6.572;2022-10-15T08:10:55;100150.72;;;14.56;80.57
48244;BME280;34053;51.088;6.572;2022-10-15T08:13:27;100148.94;;;14.56;80.78
48244;BME280;34053;51.088;6.572;2022-10-15T08:15:57;100152.34;;;14.58;82.00
48244;BME280;34053;51.088;6.572;2022-10-15T08:18:28;100151.19;;;14.64;80.78
48244;BME280;34053;51.088;6.572;2022-10-15T08:21:00;100152.00;;;14.66;80.81
48244;BME280;34053;51.088;6.572;2022-10-15T08:23:31;100153.59;;;14.69;81.43
48244;BME280;34053;51.088;6.572;2022-10-15T08:26:05;100146.72;;;14.66;81.39
48244;BME280;34053;51.088;6.572;2022-10-15T08:28:38;100137.88;;;14.66;81.29
48244;BME280;34053;51.088;6.572;2022-10-15T08:31:09;100139.38;;;14.71;81.48
48244;BME280;34053;51.088;6.572;2022-10-15T08:33:46;100136.75;;;14.71;81.18
48244;BME280;34053;51.088;6.572;2022-10-15T08:36:16;100134.88;;;14.73;81.03
48244;BME280;34053;51.088;6.572;2022-10-15T08:38:47;100130.53;;;14.72;81.42
48244;BME280;34053;51.088;6.572;2022-10-15T08:41:40;100130.28;;;14.77;81.48
48244;BME280;34053;51.088;6.572;2022-10-15T08:44:26;100130.28;;;14.77;81.81
48244;BME280;34053;51.088;6.572;2022-10-15T08:47:11;100128.91;;;14.86;81.14
48244;BME280;34053;51.088;6.572;2022-10-15T08:49:55;100125.50;;;14.84;81.39
48244;BME280;34053;51.088;6.572;2022-10-15T08:52:45;100131.56;;;14.86;81.28
48244;BME280;34053;51.088;6.572;2022-10-15T08:55:20;100116.31;;;14.91;81.11
48244;BME280;34053;51.088;6.572;2022-10-15T08:58:36;100111.88;;;14.91;81.91
48244;BME280;34053;51.088;6.572;2022-10-15T09:02:06;100126.38;;;15.00;81.38
48244;BME280;34053;51.088;6.572;2022-10-15T09:04:29;100127.75;;;15.07;81.42
48244;BME280;34053;51.088;6.572;2022-10-15T09:10:00;100131.13;;;15.09;81.74
48244;BME280;34053;51.088;6.572;2022-10-15T09:15:18;100121.88;;;15.18;81.00
48244;BME280;34053;51.088;6.572;2022-10-15T09:17:50;100117.34;;;15.20;81.61
48244;BME280;34053;51.088;6.572;2022-10-15T09:20:33;100114.53;;;15.23;81.19
48244;BME280;34053;51.088;6.572;2022-10-15T09:23:12;100114.94;;;15.32;81.17
48244;BME280;34053;51.088;6.572;2022-10-15T09:26:19;100112.28;;;15.32;81.33
48244;BME280;34053;51.088;6.572;2022-10-15T09:29:30;100104.69;;;15.41;80.91
48244;BME280;34053;51.088;6.572;2022-10-15T09:32:20;100095.16;;;15.39;81.03
48244;BME280;34053;51.088;6.572;2022-10-15T09:35:03;100093.06;;;15.60;80.52
48244;BME280;34053;51.088;6.572;2022-10-15T09:37:57;100095.22;;;15.53;80.97
48244;BME280;34053;51.088;6.572;2022-10-15T09:43:48;100096.31;;;15.65;80.85
48244;BME280;34053;51.088;6.572;2022-10-15T09:46:24;100102.84;;;15.74;81.28
48244;BME280;34053;51.088;6.572;2022-10-15T09:49:07;100104.81;;;15.70;81.56
48244;BME280;34053;51.088;6.572;2022-10-15T09:57:35;100098.13;;;15.79;82.04
48244;BME280;34053;51.088;6.572;2022-10-15T10:00:10;100091.81;;;15.82;82.32
48244;BME280;34053;51.088;6.572;2022-10-15T10:06:08;100079.69;;;15.94;83.76
48244;BME280;34053;51.088;6.572;2022-10-15T10:08:57;100084.03;;;15.95;83.33
48244;BME280;34053;51.088;6.572;2022-10-15T10:11:54;100077.31;;;16.03;83.06
48244;BME280;34053;51.088;6.572;2022-10-15T10:15:06;100074.50;;;16.07;83.82
48244;BME280;34053;51.088;6.572;2022-10-15T10:17:51;100072.44;;;16.12;83.60
48244;BME280;34053;51.088;6.572;2022-10-15T10:20:27;100078.28;;;16.17;84.66
48244;BME280;34053;51.088;6.572;2022-10-15T10:23:40;100074.31;;;16.24;83.87
48244;BME280;34053;51.088;6.572;2022-10-15T10:26:14;100072.34;;;16.28;83.69
48244;BME280;34053;51.088;6.572;2022-10-15T10:28:49;100075.66;;;16.31;83.83
48244;BME280;34053;51.088;6.572;2022-10-15T10:31:28;100075.81;;;16.43;83.40
48244;BME280;34053;51.088;6.572;2022-10-15T10:34:26;100071.28;;;16.45;84.35
48244;BME280;34053;51.088;6.572;2022-10-15T10:37:24;100076.41;;;16.48;83.61
48244;BME280;34053;51.088;6.572;2022-10-15T10:39:57;100071.19;;;16.61;83.81
48244;BME280;34053;51.088;6.572;2022-10-15T10:46:04;100063.44;;;16.58;83.18
48244;BME280;34053;51.088;6.572;2022-10-15T10:48:43;100066.84;;;16.60;83.46
48244;BME280;34053;51.088;6.572;2022-10-15T10:51:21;100066.84;;;16.60;83.09
48244;BME280;34053;51.088;6.572;2022-10-15T10:54:10;100064.09;;;16.61;83.18
48244;BME280;34053;51.088;6.572;2022-10-15T10:56:47;100082.06;;;16.71;82.55
48244;BME280;34053;51.088;6.572;2022-10-15T10:59:41;100078.19;;;16.76;82.39
48244;BME280;34053;51.088;6.572;2022-10-15T11:02:17;100078.38;;;16.73;82.66
48244;BME280;34053;51.088;6.572;2022-10-15T11:04:49;100070.69;;;16.68;83.41
48244;BME280;34053;51.088;6.572;2022-10-15T11:10:47;100055.47;;;16.72;83.47
48244;BME280;34053;51.088;6.572;2022-10-15T11:16:14;100051.59;;;16.78;84.46
48244;BME280;34053;51.088;6.572;2022-10-15T11:21:58;100043.22;;;16.84;83.61
48244;BME280;34053;51.088;6.572;2022-10-15T11:27:42;100043.03;;;16.87;84.79
48244;BME280;34053;51.088;6.572;2022-10-15T11:33:32;100042.28;;;16.99;84.03
48244;BME280;34053;51.088;6.572;2022-10-15T11:50:40;100035.97;;;17.15;83.33
48244;BME280;34053;51.088;6.572;2022-10-15T11:56:36;100025.81;;;17.22;83.23
48244;BME280;34053;51.088;6.572;2022-10-15T11:59:12;100021.16;;;17.25;82.74
48244;BME280;34053;51.088;6.572;2022-10-15T12:07:05;100023.22;;;17.35;81.78
48244;BME280;34053;51.088;6.572;2022-10-15T12:09:40;100022.06;;;17.39;80.44
48244;BME280;34053;51.088;6.572;2022-10-15T12:14:47;100016.22;;;17.46;80.14
48244;BME280;34053;51.088;6.572;2022-10-15T12:17:46;100005.50;;;17.48;80.07
48244;BME280;34053;51.088;6.572;2022-10-15T12:20:20;100007.97;;;17.51;80.07
48244;BME280;34053;51.088;6.572;2022-10-15T12:22:52;100014.97;;;17.52;80.85
48244;BME280;34053;51.088;6.572;2022-10-15T12:28:18;100005.78;;;17.71;78.41
48244;BME280;34053;51.088;6.572;2022-10-15T12:31:03;100002.25;;;17.70;78.86
48244;BME280;34053;51.088;6.572;2022-10-15T12:33:52;100003.31;;;17.68;78.81
48244;BME280;34053;51.088;6.572;2022-10-15T12:36:31;100007.66;;;17.69;79.25
48244;BME280;34053;51.088;6.572;2022-10-15T12:39:23;100007.25;;;17.75;79.03
48244;BME280;34053;51.088;6.572;2022-10-15T12:41:56;99999.19;;;17.76;79.26
48244;BME280;34053;51.088;6.572;2022-10-15T12:44:28;99996.88;;;17.85;78.50
48244;BME280;34053;51.088;6.572;2022-10-15T12:46:59;100004.72;;;17.86;78.78
48244;BME280;34053;51.088;6.572;2022-10-15T12:52:49;100004.13;;;17.96;78.44
48244;BME280;34053;51.088;6.572;2022-10-15T12:57:57;100033.94;;;17.99;79.26
48244;BME280;34053;51.088;6.572;2022-10-15T13:00:39;100016.19;;;18.00;79.74
48244;BME280;34053;51.088;6.572;2022-10-15T13:03:34;100010.56;;;18.04;79.53
48244;BME280;34053;51.088;6.572;2022-10-15T13:08:44;99999.84;;;18.06;79.79
48244;BME280;34053;51.088;6.572;2022-10-15T13:11:21;99997.72;;;18.11;80.34
48244;BME280;34053;51.088;6.572;2022-10-15T13:14:00;99989.75;;;18.11;80.08
48244;BME280;34053;51.088;6.572;2022-10-15T13:16:34;99987.63;;;18.16;79.74
48244;BME280;34053;51.088;6.572;2022-10-15T13:19:21;99987.94;;;18.24;79.58
48244;BME280;34053;51.088;6.572;2022-10-15T13:21:58;99986.84;;;18.27;80.07
48244;BME280;34053;51.088;6.572;2022-10-15T13:24:43;99988.97;;;18.35;79.35
48244;BME280;34053;51.088;6.572;2022-10-15T13:27:31;99986.44;;;18.33;79.84
48244;BME280;34053;51.088;6.572;2022-10-15T13:32:50;99981.50;;;18.40;77.63
48244;BME280;34053;51.088;6.572;2022-10-15T13:35:25;99983.22;;;18.41;78.25
48244;BME280;34053;51.088;6.572;2022-10-15T13:38:21;99983.84;;;18.45;77.70
48244;BME280;34053;51.088;6.572;2022-10-15T13:40:55;99983.63;;;18.48;77.57
48244;BME280;34053;51.088;6.572;2022-10-15T13:43:28;99985.22;;;18.50;77.73
48244;BME280;34053;51.088;6.572;2022-10-15T13:46:05;99984.13;;;18.53;78.13
48244;BME280;34053;51.088;6.572;2022-10-15T13:48:40;99988.44;;;18.67;77.21
48244;BME280;34053;51.088;6.572;2022-10-15T13:51:11;99990.91;;;18.70;76.85
48244;BME280;34053;51.088;6.572;2022-10-15T13:53:43;99985.59;;;18.70;76.49
48244;BME280;34053;51.088;6.572;2022-10-15T13:56:27;99989.81;;;18.72;75.19
48244;BME280;34053;51.088;6.572;2022-10-15T13:58:59;99989.69;;;18.74;74.97
48244;BME280;34053;51.088;6.572;2022-10-15T14:01:31;99986.41;;;18.70;76.11
48244;BME280;34053;51.088;6.572;2022-10-15T14:04:15;99982.06;;;18.69;76.62
48244;BME280;34053;51.088;6.572;2022-10-15T14:09:36;99998.63;;;18.73;75.75
48244;BME280;34053;51.088;6.572;2022-10-15T14:12:10;99986.88;;;18.64;75.39
48244;BME280;34053;51.088;6.572;2022-10-15T14:14:45;100000.28;;;18.63;75.60
48244;BME280;34053;51.088;6.572;2022-10-15T14:19:55;99988.66;;;18.64;75.73
48244;BME280;34053;51.088;6.572;2022-10-15T14:22:28;99979.03;;;18.63;75.66
48244;BME280;34053;51.088;6.572;2022-10-15T14:25:09;99987.22;;;18.60;76.29
48244;BME280;34053;51.088;6.572;2022-10-15T14:27:44;99983.72;;;18.59;75.57
48244;BME280;34053;51.088;6.572;2022-10-15T14:30:27;100007.25;;;18.64;75.34
48244;BME280;34053;51.088;6.572;2022-10-15T14:32:59;100020.78;;;18.61;75.35
48244;BME280;34053;51.088;6.572;2022-10-15T14:35:35;100016.13;;;18.51;77.07
48244;BME280;34053;51.088;6.572;2022-10-15T14:41:02;100014.63;;;18.47;78.98
48244;BME280;34053;51.088;6.572;2022-10-15T14:43:41;100031.66;;;18.45;79.81
48244;BME280;34053;51.088;6.572;2022-10-15T14:46:16;100042.19;;;18.46;80.17
48244;BME280;34053;51.088;6.572;2022-10-15T14:48:51;100049.22;;;18.34;81.32
48244;BME280;34053;51.088;6.572;2022-10-15T14:51:24;100055.81;;;18.29;80.80
48244;BME280;34053;51.088;6.572;2022-10-15T14:53:54;100058.47;;;18.29;80.09
48244;BME280;34053;51.088;6.572;2022-10-15T14:56:31;100049.94;;;18.23;79.92
48244;BME280;34053;51.088;6.572;2022-10-15T14:59:02;100057.19;;;18.21;79.35
48244;BME280;34053;51.088;6.572;2022-10-15T15:01:54;100069.41;;;18.24;79.36
48244;BME280;34053;51.088;6.572;2022-10-15T15:04:36;100066.50;;;18.14;80.37
48244;BME280;34053;51.088;6.572;2022-10-15T15:07:12;100072.88;;;18.12;80.74
48244;BME280;34053;51.088;6.572;2022-10-15T15:09:46;100083.63;;;18.10;81.10
48244;BME280;34053;51.088;6.572;2022-10-15T15:12:22;100087.97;;;18.11;81.55
48244;BME280;34053;51.088;6.572;2022-10-15T15:15:16;100093.09;;;18.01;81.69
48244;BME280;34053;51.088;6.572;2022-10-15T15:17:49;100093.50;;;18.08;81.29
48244;BME280;34053;51.088;6.572;2022-10-15T15:20:23;100096.41;;;17.90;82.87
48244;BME280;34053;51.088;6.572;2022-10-15T15:22:54;100104.28;;;17.92;82.56
48244;BME280;34053;51.088;6.572;2022-10-15T15:25:30;100099.69;;;17.81;83.28
48244;BME280;34053;51.088;6.572;2022-10-15T15:28:03;100096.06;;;17.69;83.80
48244;BME280;34053;51.088;6.572;2022-10-15T15:30:38;100088.84;;;17.71;83.23
48244;BME280;34053;51.088;6.572;2022-10-15T15:33:14;100092.38;;;17.72;82.87